メインページ
METAR-TAF:

METAR-TAF

空港 :

青森空港

青森, 日本

緯度: 40-44N, 経度: 140-42E, 海抜: 199m

現時点の気象観測

当レポートは22分前の07:00(UTC)に作成
北東の風 5kt、から東/北東の間で変化する
気温 23°C
湿度 65%
気圧 1012 hPa
視程10km以上
高度4000ftの雲はほとんどない
千切れ雲あり

METAR: RJSA 200700Z 04005KT 360V070 9999 FEW040 BKN/// 23/16 Q1012

時間: 16:22 (07:22 UTC)

予報

当レポートは2時間14分前の05:08(UTC)に作成
予報は20日の 06時(UTC)から 21日の 12時(UTC)まで有効
北/北東の風 4kt
視程10km以上
高度3000ftの雲はほとんどない
20日の 18時(UTC)から 20日の 21時(UTC)まで一時的に
視程: 1500m
高度100ftの雲はほとんどない
高度300ftの千切れ雲あり
21日の 06時(UTC)から 21日の 09時(UTC)まで徐々に
南/南西の風 7kt

TAF: RJSA 200508Z 2006/2112 03004KT 9999 FEW030 TEMPO 2018/2021 1500 BR FEW001 BKN003 BECMG 2106/2109 20007KT

4,000以上の空港の気象観測と天気予報(METAR報とTAF報)

利用可能な観測所は地図上に黄色い丸と赤い丸で示す。

丸の上にカーソルを重ねると観測所名を参照できる。

次にクリックすると気象観測と天気予報を参照できる。

マップの切り替え:黒色「×」印の緑ボタンをクリックして拡大、「-」印の緑ボタンをクリックして縮小、緑色の三角印をクリックして隣りの地図に切り替え


METAR-TAF: